Data Viewer
| City | State | Eastern Time | Source | Temp | DewPt | RH | BP | 5 Min Precip | Wind Speed | Wind Dir | 5 Min Wind Max | 5 Min Wind Max Dir |
|---|---|---|---|---|---|---|---|---|---|---|---|---|
| Old Bridge | NJ | 2026-05-06 14:00 | NCAWOS | 55 | 60 | 29.76 | 13 | WSW | ||||
| Old Bridge | NJ | 2026-05-07 06:04 | NCAWOS | 52 | 100 | 29.84 | 3 | NW | ||||
| Old Bridge | NJ | 2026-05-07 08:04 | NCAWOS | 50 | 94 | 29.88 | 5 | NW | ||||
| Old Bridge | NJ | 2026-05-07 07:24 | NCAWOS | 52 | 100 | 29.86 | 3 | NW | ||||
| Old Bridge | NJ | 2026-05-07 07:14 | NCAWOS | 52 | 100 | 29.86 | 3 | NW | ||||
| Old Bridge | NJ | 2026-05-07 07:09 | NCAWOS | 52 | 100 | 29.85 | 3 | NNW | ||||
| Old Bridge | NJ | 2026-05-07 07:04 | NCAWOS | 52 | 100 | 29.86 | 0 | N | ||||
| Old Bridge | NJ | 2026-05-07 06:28 | NCAWOS | 52 | 100 | 29.84 | 3 | NW | ||||
| Old Bridge | NJ | 2026-05-07 06:19 | NCAWOS | 52 | 100 | 29.84 | 0 | N | ||||
| Old Bridge | NJ | 2026-05-07 06:14 | NCAWOS | 52 | 100 | 29.84 | 0 | N | ||||
| Old Bridge | NJ | 2026-05-07 05:24 | NCAWOS | 52 | 100 | 29.83 | 3 | NW | ||||
| Old Bridge | NJ | 2026-05-07 08:14 | NCAWOS | 50 | 94 | 29.88 | 3 | N | ||||
| Old Bridge | NJ | 2026-05-07 05:14 | NCAWOS | 52 | 100 | 29.83 | 3 | NW | ||||
| Old Bridge | NJ | 2026-05-07 05:09 | NCAWOS | 52 | 100 | 29.83 | 5 | NNW | ||||
| Old Bridge | NJ | 2026-05-07 05:04 | NCAWOS | 52 | 100 | 29.82 | 5 | NNW | ||||
| Old Bridge | NJ | 2026-05-07 04:24 | NCAWOS | 50 | 94 | 29.83 | 3 | N | ||||
| Old Bridge | NJ | 2026-05-07 04:14 | NCAWOS | 50 | 94 | 29.83 | 6 | N | ||||
| Old Bridge | NJ | 2026-05-07 04:09 | NCAWOS | 50 | 94 | 29.83 | 6 | NNW | ||||
| Old Bridge | NJ | 2026-05-07 04:04 | NCAWOS | 50 | 94 | 29.84 | 5 | NNW | ||||
| Old Bridge | NJ | 2026-05-07 03:29 | NCAWOS | 52 | 100 | 29.83 | 6 | NNW | ||||
| Old Bridge | NJ | 2026-05-07 03:24 | NCAWOS | 52 | 100 | 29.82 | 6 | N | ||||
| Old Bridge | NJ | 2026-05-07 08:09 | NCAWOS | 50 | 94 | 29.88 | 3 | NNW | ||||
| Old Bridge | NJ | 2026-05-07 08:19 | NCAWOS | 50 | 94 | 29.88 | 3 | N | ||||
| Old Bridge | NJ | 2026-05-07 03:14 | NCAWOS | 52 | 100 | 29.83 | 5 | ENE | ||||
| Old Bridge | NJ | 2026-05-07 11:19 | NCAWOS | 35 | 41 | 29.86 | 5 | NNW | ||||
| Old Bridge | NJ | 2026-05-07 13:10 | NCAWOS | 32 | 30 | 29.82 | 7 | NE | ||||
| Old Bridge | NJ | 2026-05-07 13:04 | NCAWOS | 32 | 30 | 29.82 | 3 | N | ||||
| Old Bridge | NJ | 2026-05-07 12:24 | NCAWOS | 30 | 29 | 29.83 | 7 | NNW | ||||
| Old Bridge | NJ | 2026-05-07 12:19 | NCAWOS | 32 | 34 | 29.84 | 5 | N | ||||
| Old Bridge | NJ | 2026-05-07 12:14 | NCAWOS | 32 | 34 | 29.84 | 9 | NNE | ||||
| Old Bridge | NJ | 2026-05-07 12:10 | NCAWOS | 34 | 34 | 29.84 | 8 | NNE | ||||
| Old Bridge | NJ | 2026-05-07 12:04 | NCAWOS | 34 | 36 | 29.84 | 6 | NNE | ||||
| Old Bridge | NJ | 2026-05-07 11:24 | NCAWOS | 35 | 39 | 29.86 | 6 | NW | ||||
| Old Bridge | NJ | 2026-05-07 11:15 | NCAWOS | 35 | 39 | 29.86 | 7 | N | ||||
| Old Bridge | NJ | 2026-05-07 08:24 | NCAWOS | 50 | 94 | 29.88 | 3 | NNW | ||||
| Old Bridge | NJ | 2026-05-07 11:09 | NCAWOS | 35 | 39 | 29.86 | 6 | N | ||||
| Old Bridge | NJ | 2026-05-07 11:04 | NCAWOS | 37 | 42 | 29.86 | 6 | NNE | ||||
| Old Bridge | NJ | 2026-05-07 10:14 | NCAWOS | 41 | 55 | 29.88 | 6 | NNW | ||||
| Old Bridge | NJ | 2026-05-07 10:04 | NCAWOS | 43 | 59 | 29.88 | 7 | NW | ||||
| Old Bridge | NJ | 2026-05-07 09:24 | NCAWOS | 46 | 72 | 29.88 | 5 | NNW | ||||
| Old Bridge | NJ | 2026-05-07 09:19 | NCAWOS | 46 | 72 | 29.88 | 6 | N | ||||
| Old Bridge | NJ | 2026-05-07 09:14 | NCAWOS | 48 | 82 | 29.88 | 5 | NNW | ||||
| Old Bridge | NJ | 2026-05-07 09:09 | NCAWOS | 48 | 82 | 29.87 | 5 | N | ||||
| Old Bridge | NJ | 2026-05-07 09:04 | NCAWOS | 48 | 82 | 29.87 | 3 | NNW | ||||
| Old Bridge | NJ | 2026-05-07 03:19 | NCAWOS | 52 | 100 | 29.82 | 8 | N | ||||
| Old Bridge | NJ | 2026-05-07 03:09 | NCAWOS | 54 | 100 | 29.82 | 7 | NNW | ||||
| Old Bridge | NJ | 2026-05-06 14:04 | NCAWOS | 55 | 60 | 29.76 | 13 | WSW | ||||
| Old Bridge | NJ | 2026-05-06 16:09 | NCAWOS | 57 | 73 | 29.74 | 6 | W | ||||
| Old Bridge | NJ | 2026-05-06 18:24 | NCAWOS | 57 | 64 | 29.75 | 10 | WSW | ||||
| Old Bridge | NJ | 2026-05-06 18:19 | NCAWOS | 57 | 64 | 29.75 | 9 | WSW | ||||
| Old Bridge | NJ | 2026-05-06 18:04 | NCAWOS | 57 | 64 | 29.75 | 7 | W | ||||
| Old Bridge | NJ | 2026-05-06 17:24 | NCAWOS | 57 | 64 | 29.74 | 7 | W | ||||
| Old Bridge | NJ | 2026-05-06 17:14 | NCAWOS | 57 | 64 | 29.73 | 10 | W | ||||
| Old Bridge | NJ | 2026-05-06 17:09 | NCAWOS | 57 | 64 | 29.73 | 8 | WSW | ||||
| Old Bridge | NJ | 2026-05-06 17:04 | NCAWOS | 57 | 64 | 29.73 | 7 | W | ||||
| Old Bridge | NJ | 2026-05-06 16:14 | NCAWOS | 57 | 73 | 29.73 | 7 | W | ||||
| Old Bridge | NJ | 2026-05-06 16:04 | NCAWOS | 57 | 73 | 29.73 | 8 | WSW | ||||
| Old Bridge | NJ | 2026-05-06 19:19 | NCAWOS | 57 | 64 | 29.76 | 7 | WSW | ||||
| Old Bridge | NJ | 2026-05-06 15:24 | NCAWOS | 57 | 73 | 29.76 | 10 | WSW | ||||
| Old Bridge | NJ | 2026-05-06 15:14 | NCAWOS | 55 | 68 | 29.75 | 15 | WSW | ||||
| Old Bridge | NJ | 2026-05-06 15:09 | NCAWOS | 55 | 64 | 29.75 | 14 | WSW | ||||
| Old Bridge | NJ | 2026-05-06 15:02 | NCAWOS | 55 | 64 | 29.75 | 10 | WSW | ||||
| Old Bridge | NJ | 2026-05-06 14:29 | NCAWOS | 55 | 68 | 29.75 | 11 | WSW | ||||
| Old Bridge | NJ | 2026-05-06 14:24 | NCAWOS | 55 | 68 | 29.76 | 13 | WSW | ||||
| Old Bridge | NJ | 2026-05-06 14:20 | NCAWOS | 55 | 64 | 29.76 | 13 | WSW | ||||
| Old Bridge | NJ | 2026-05-06 14:14 | NCAWOS | 55 | 64 | 29.76 | 9 | W | ||||
| Old Bridge | NJ | 2026-05-06 14:09 | NCAWOS | 55 | 60 | 29.76 | 14 | WSW | ||||
| Old Bridge | NJ | 2026-05-06 19:04 | NCAWOS | 57 | 64 | 29.75 | 8 | WSW | ||||
| Old Bridge | NJ | 2026-05-06 22:14 | NCAWOS | 59 | 73 | 29.77 | 6 | WSW | ||||
| Old Bridge | NJ | 2026-05-07 03:04 | NCAWOS | 54 | 100 | 29.83 | 6 | NNW | ||||
| Old Bridge | NJ | 2026-05-07 01:14 | NCAWOS | 55 | 94 | 29.79 | 0 | N | ||||
| Old Bridge | NJ | 2026-05-07 02:24 | NCAWOS | 54 | 100 | 29.83 | 0 | N | ||||
| Old Bridge | NJ | 2026-05-07 02:20 | NCAWOS | 54 | 100 | 29.82 | 5 | N | ||||
| Old Bridge | NJ | 2026-05-07 02:14 | NCAWOS | 54 | 100 | 29.81 | 5 | N | ||||
| Old Bridge | NJ | 2026-05-07 02:09 | NCAWOS | 54 | 94 | 29.80 | 5 | NNE | ||||
| Old Bridge | NJ | 2026-05-07 02:04 | NCAWOS | 54 | 94 | 29.82 | 6 | N | ||||
| Old Bridge | NJ | 2026-05-07 02:00 | NCAWOS | 54 | 94 | 29.84 | 8 | NW | ||||
| Old Bridge | NJ | 2026-05-07 01:29 | NCAWOS | 54 | 88 | 29.79 | 5 | N | ||||
| Old Bridge | NJ | 2026-05-07 01:24 | NCAWOS | 54 | 88 | 29.80 | 5 | NW | ||||
| Old Bridge | NJ | 2026-05-07 01:19 | NCAWOS | 54 | 88 | 29.80 | 5 | WNW | ||||
| Old Bridge | NJ | 2026-05-07 01:09 | NCAWOS | 55 | 94 | 29.79 | 3 | NNW | ||||
| Old Bridge | NJ | 2026-05-06 22:29 | NCAWOS | 59 | 78 | 29.76 | 8 | WSW | ||||
| Old Bridge | NJ | 2026-05-07 01:04 | NCAWOS | 55 | 94 | 29.78 | 3 | NNW | ||||
| Old Bridge | NJ | 2026-05-07 00:19 | NCAWOS | 55 | 94 | 29.79 | 5 | N | ||||
| Old Bridge | NJ | 2026-05-07 00:14 | NCAWOS | 55 | 94 | 29.80 | 3 | N | ||||
| Old Bridge | NJ | 2026-05-07 00:09 | NCAWOS | 55 | 88 | 29.80 | 5 | N | ||||
| Old Bridge | NJ | 2026-05-07 00:04 | NCAWOS | 55 | 88 | 29.79 | 3 | NNE | ||||
| Old Bridge | NJ | 2026-05-06 23:24 | NCAWOS | 61 | 94 | 29.79 | 6 | NNW | ||||
| Old Bridge | NJ | 2026-05-06 23:19 | NCAWOS | 61 | 94 | 29.78 | 5 | NNW | ||||
| Old Bridge | NJ | 2026-05-06 23:15 | NCAWOS | 61 | 88 | 29.78 | 7 | NNW | ||||
| Old Bridge | NJ | 2026-05-06 23:04 | NCAWOS | 61 | 88 | 29.78 | 3 | NNW | ||||
| Old Bridge | NJ | 2026-05-07 13:13 | NCAWOS | 30 | 28 | 29.82 | 9 | N |
data collection created in 0.0153489112854 (queried in 0.003815) rendered in: 0.00013089179992676

